sensor_id;sensor_type;location;lat;lon;timestamp;temperature;humidity
78467;SHT31;67759;51.972;5.650;2023-12-28T00:01:53;15.6;50.9
78467;SHT31;67759;51.972;5.650;2023-12-28T00:04:21;15.7;50.9
78467;SHT31;67759;51.972;5.650;2023-12-28T00:06:50;15.7;51.0
78467;SHT31;67759;51.972;5.650;2023-12-28T00:09:19;15.7;51.2
78467;SHT31;67759;51.972;5.650;2023-12-28T00:11:47;15.7;51.1
78467;SHT31;67759;51.972;5.650;2023-12-28T00:14:16;15.8;51.2
78467;SHT31;67759;51.972;5.650;2023-12-28T00:16:44;15.8;51.2
78467;SHT31;67759;51.972;5.650;2023-12-28T00:19:14;15.8;51.0
78467;SHT31;67759;51.972;5.650;2023-12-28T00:21:43;15.9;50.8
78467;SHT31;67759;51.972;5.650;2023-12-28T00:24:12;15.9;50.8
78467;SHT31;67759;51.972;5.650;2023-12-28T00:26:41;15.9;50.8
78467;SHT31;67759;51.972;5.650;2023-12-28T00:29:09;16.0;50.7
78467;SHT31;67759;51.972;5.650;2023-12-28T00:31:38;16.0;50.8
78467;SHT31;67759;51.972;5.650;2023-12-28T00:34:06;16.0;50.8
78467;SHT31;67759;51.972;5.650;2023-12-28T00:36:35;16.1;50.7
78467;SHT31;67759;51.972;5.650;2023-12-28T00:39:03;16.1;50.7
78467;SHT31;67759;51.972;5.650;2023-12-28T00:41:32;16.2;50.6
78467;SHT31;67759;51.972;5.650;2023-12-28T00:44:01;16.3;50.6
78467;SHT31;67759;51.972;5.650;2023-12-28T00:46:31;16.3;50.5
78467;SHT31;67759;51.972;5.650;2023-12-28T00:49:02;16.3;50.5
78467;SHT31;67759;51.972;5.650;2023-12-28T00:51:30;16.3;50.4
78467;SHT31;67759;51.972;5.650;2023-12-28T00:53:59;16.4;50.5
78467;SHT31;67759;51.972;5.650;2023-12-28T00:56:28;16.4;50.5
78467;SHT31;67759;51.972;5.650;2023-12-28T00:58:56;16.4;50.5
78467;SHT31;67759;51.972;5.650;2023-12-28T01:01:25;16.4;50.6
78467;SHT31;67759;51.972;5.650;2023-12-28T01:03:53;16.4;50.7
78467;SHT31;67759;51.972;5.650;2023-12-28T01:06:22;16.4;50.8
78467;SHT31;67759;51.972;5.650;2023-12-28T01:08:54;16.4;50.8
78467;SHT31;67759;51.972;5.650;2023-12-28T01:11:25;16.4;50.8
78467;SHT31;67759;51.972;5.650;2023-12-28T01:13:54;16.4;50.9
78467;SHT31;67759;51.972;5.650;2023-12-28T01:16:24;16.4;50.8
78467;SHT31;67759;51.972;5.650;2023-12-28T01:18:53;16.4;50.8
78467;SHT31;67759;51.972;5.650;2023-12-28T01:21:21;16.3;50.9
78467;SHT31;67759;51.972;5.650;2023-12-28T01:23:51;16.3;51.0
78467;SHT31;67759;51.972;5.650;2023-12-28T01:26:20;16.3;51.0
78467;SHT31;67759;51.972;5.650;2023-12-28T01:28:49;16.2;51.1
78467;SHT31;67759;51.972;5.650;2023-12-28T01:31:17;16.2;51.2
78467;SHT31;67759;51.972;5.650;2023-12-28T01:33:45;16.2;51.3
78467;SHT31;67759;51.972;5.650;2023-12-28T01:36:20;16.1;51.5
78467;SHT31;67759;51.972;5.650;2023-12-28T01:38:49;16.1;51.5
78467;SHT31;67759;51.972;5.650;2023-12-28T01:41:18;16.1;51.7
78467;SHT31;67759;51.972;5.650;2023-12-28T01:43:47;16.0;51.9
78467;SHT31;67759;51.972;5.650;2023-12-28T01:46:17;16.0;52.1
78467;SHT31;67759;51.972;5.650;2023-12-28T01:48:50;16.0;52.2
78467;SHT31;67759;51.972;5.650;2023-12-28T01:51:20;16.1;52.1
78467;SHT31;67759;51.972;5.650;2023-12-28T01:53:50;16.1;52.0
78467;SHT31;67759;51.972;5.650;2023-12-28T01:56:21;16.1;51.9
78467;SHT31;67759;51.972;5.650;2023-12-28T01:58:53;16.1;51.8
78467;SHT31;67759;51.972;5.650;2023-12-28T02:01:23;16.1;51.8
78467;SHT31;67759;51.972;5.650;2023-12-28T02:03:54;16.1;51.9
78467;SHT31;67759;51.972;5.650;2023-12-28T02:06:24;16.1;51.9
78467;SHT31;67759;51.972;5.650;2023-12-28T02:08:53;16.1;52.1
78467;SHT31;67759;51.972;5.650;2023-12-28T02:11:23;16.0;52.2
78467;SHT31;67759;51.972;5.650;2023-12-28T02:13:52;16.0;52.3
78467;SHT31;67759;51.972;5.650;2023-12-28T02:16:26;16.0;52.4
78467;SHT31;67759;51.972;5.650;2023-12-28T02:18:58;16.0;52.5
78467;SHT31;67759;51.972;5.650;2023-12-28T02:21:31;16.0;52.5
78467;SHT31;67759;51.972;5.650;2023-12-28T02:24:01;16.0;52.6
78467;SHT31;67759;51.972;5.650;2023-12-28T02:26:31;15.9;52.6
78467;SHT31;67759;51.972;5.650;2023-12-28T02:29:00;15.9;52.6
78467;SHT31;67759;51.972;5.650;2023-12-28T02:31:37;15.9;52.5
78467;SHT31;67759;51.972;5.650;2023-12-28T02:34:19;15.9;52.6
78467;SHT31;67759;51.972;5.650;2023-12-28T02:36:49;15.9;52.7
78467;SHT31;67759;51.972;5.650;2023-12-28T02:39:22;15.9;52.8
78467;SHT31;67759;51.972;5.650;2023-12-28T02:41:52;15.8;52.9
78467;SHT31;67759;51.972;5.650;2023-12-28T02:44:21;15.8;53.0
78467;SHT31;67759;51.972;5.650;2023-12-28T02:46:50;15.8;53.0
78467;SHT31;67759;51.972;5.650;2023-12-28T02:49:19;15.8;53.1
78467;SHT31;67759;51.972;5.650;2023-12-28T02:51:48;15.7;53.2
78467;SHT31;67759;51.972;5.650;2023-12-28T02:54:17;15.7;53.3
78467;SHT31;67759;51.972;5.650;2023-12-28T02:56:45;15.7;53.4
78467;SHT31;67759;51.972;5.650;2023-12-28T02:59:14;15.7;53.6
78467;SHT31;67759;51.972;5.650;2023-12-28T03:01:44;15.6;53.7
78467;SHT31;67759;51.972;5.650;2023-12-28T03:04:13;15.6;53.8
78467;SHT31;67759;51.972;5.650;2023-12-28T03:06:46;15.6;53.9
78467;SHT31;67759;51.972;5.650;2023-12-28T03:09:15;15.6;53.9
78467;SHT31;67759;51.972;5.650;2023-12-28T03:11:43;15.6;54.0
78467;SHT31;67759;51.972;5.650;2023-12-28T03:14:12;15.5;54.0
78467;SHT31;67759;51.972;5.650;2023-12-28T03:16:40;15.5;54.1
78467;SHT31;67759;51.972;5.650;2023-12-28T03:19:09;15.5;54.1
78467;SHT31;67759;51.972;5.650;2023-12-28T03:21:40;15.5;54.1
78467;SHT31;67759;51.972;5.650;2023-12-28T03:24:09;15.5;54.1
78467;SHT31;67759;51.972;5.650;2023-12-28T03:26:40;15.5;54.1
78467;SHT31;67759;51.972;5.650;2023-12-28T03:29:09;15.5;54.2
78467;SHT31;67759;51.972;5.650;2023-12-28T03:31:40;15.5;54.2
78467;SHT31;67759;51.972;5.650;2023-12-28T03:34:09;15.5;54.2
78467;SHT31;67759;51.972;5.650;2023-12-28T03:36:38;15.6;54.2
78467;SHT31;67759;51.972;5.650;2023-12-28T03:39:08;15.6;54.0
78467;SHT31;67759;51.972;5.650;2023-12-28T03:41:37;15.7;53.8
78467;SHT31;67759;51.972;5.650;2023-12-28T03:44:05;15.8;53.6
78467;SHT31;67759;51.972;5.650;2023-12-28T03:46:34;15.8;53.4
78467;SHT31;67759;51.972;5.650;2023-12-28T03:49:02;15.8;53.2
78467;SHT31;67759;51.972;5.650;2023-12-28T03:51:31;15.9;53.1
78467;SHT31;67759;51.972;5.650;2023-12-28T03:54:00;15.9;53.1
78467;SHT31;67759;51.972;5.650;2023-12-28T03:56:30;15.9;53.0
78467;SHT31;67759;51.972;5.650;2023-12-28T03:58:59;15.9;53.0
78467;SHT31;67759;51.972;5.650;2023-12-28T04:01:28;15.9;52.8
78467;SHT31;67759;51.972;5.650;2023-12-28T04:03:56;15.8;52.8
78467;SHT31;67759;51.972;5.650;2023-12-28T04:06:25;15.8;52.8
78467;SHT31;67759;51.972;5.650;2023-12-28T04:08:53;15.8;52.7
78467;SHT31;67759;51.972;5.650;2023-12-28T04:11:22;15.8;52.7
78467;SHT31;67759;51.972;5.650;2023-12-28T04:13:51;15.8;52.6
78467;SHT31;67759;51.972;5.650;2023-12-28T04:16:21;15.8;52.7
78467;SHT31;67759;51.972;5.650;2023-12-28T04:18:50;15.8;52.6
78467;SHT31;67759;51.972;5.650;2023-12-28T04:21:19;15.7;52.6
78467;SHT31;67759;51.972;5.650;2023-12-28T04:23:48;15.7;52.6
78467;SHT31;67759;51.972;5.650;2023-12-28T04:26:17;15.7;52.7
78467;SHT31;67759;51.972;5.650;2023-12-28T04:28:46;15.6;52.9
78467;SHT31;67759;51.972;5.650;2023-12-28T04:31:15;15.6;53.0
78467;SHT31;67759;51.972;5.650;2023-12-28T04:33:44;15.6;52.9
78467;SHT31;67759;51.972;5.650;2023-12-28T04:36:13;15.6;52.9
78467;SHT31;67759;51.972;5.650;2023-12-28T04:38:41;15.6;52.9
78467;SHT31;67759;51.972;5.650;2023-12-28T04:41:10;15.6;52.9
78467;SHT31;67759;51.972;5.650;2023-12-28T04:43:40;15.6;52.9
78467;SHT31;67759;51.972;5.650;2023-12-28T04:46:08;15.6;52.9
78467;SHT31;67759;51.972;5.650;2023-12-28T04:48:37;15.6;53.0
78467;SHT31;67759;51.972;5.650;2023-12-28T04:51:06;15.6;52.9
78467;SHT31;67759;51.972;5.650;2023-12-28T04:53:34;15.6;52.8
78467;SHT31;67759;51.972;5.650;2023-12-28T04:56:03;15.6;52.9
78467;SHT31;67759;51.972;5.650;2023-12-28T04:58:32;15.6;52.8
78467;SHT31;67759;51.972;5.650;2023-12-28T05:01:03;15.6;52.8
78467;SHT31;67759;51.972;5.650;2023-12-28T05:03:33;15.6;53.0
78467;SHT31;67759;51.972;5.650;2023-12-28T05:06:03;15.6;52.8
78467;SHT31;67759;51.972;5.650;2023-12-28T05:08:32;15.6;52.8
78467;SHT31;67759;51.972;5.650;2023-12-28T05:11:01;15.7;52.7
78467;SHT31;67759;51.972;5.650;2023-12-28T05:13:29;15.7;52.7
78467;SHT31;67759;51.972;5.650;2023-12-28T05:15:58;15.8;52.5
78467;SHT31;67759;51.972;5.650;2023-12-28T05:18:26;15.8;52.1
78467;SHT31;67759;51.972;5.650;2023-12-28T05:20:55;15.9;51.9
78467;SHT31;67759;51.972;5.650;2023-12-28T05:23:24;15.9;51.9
78467;SHT31;67759;51.972;5.650;2023-12-28T05:25:53;15.9;51.5
78467;SHT31;67759;51.972;5.650;2023-12-28T05:28:22;16.0;51.5
78467;SHT31;67759;51.972;5.650;2023-12-28T05:30:52;16.0;51.3
78467;SHT31;67759;51.972;5.650;2023-12-28T05:33:20;16.1;51.2
78467;SHT31;67759;51.972;5.650;2023-12-28T05:35:49;16.1;50.7
78467;SHT31;67759;51.972;5.650;2023-12-28T05:38:18;16.2;50.8
78467;SHT31;67759;51.972;5.650;2023-12-28T05:40:46;16.2;50.5
78467;SHT31;67759;51.972;5.650;2023-12-28T05:43:15;16.2;50.5
78467;SHT31;67759;51.972;5.650;2023-12-28T05:45:45;16.3;50.3
78467;SHT31;67759;51.972;5.650;2023-12-28T05:48:14;16.3;50.4
78467;SHT31;67759;51.972;5.650;2023-12-28T05:50:42;16.3;50.2
78467;SHT31;67759;51.972;5.650;2023-12-28T05:53:11;16.3;50.2
78467;SHT31;67759;51.972;5.650;2023-12-28T05:55:40;16.3;50.0
78467;SHT31;67759;51.972;5.650;2023-12-28T05:58:09;16.3;50.2
78467;SHT31;67759;51.972;5.650;2023-12-28T06:00:40;16.3;50.2
78467;SHT31;67759;51.972;5.650;2023-12-28T06:03:12;16.3;50.2
78467;SHT31;67759;51.972;5.650;2023-12-28T06:05:41;16.3;50.2
78467;SHT31;67759;51.972;5.650;2023-12-28T06:08:12;16.3;50.2
78467;SHT31;67759;51.972;5.650;2023-12-28T06:10:41;16.3;50.2
78467;SHT31;67759;51.972;5.650;2023-12-28T06:13:09;16.3;49.9
78467;SHT31;67759;51.972;5.650;2023-12-28T06:15:39;16.3;50.1
78467;SHT31;67759;51.972;5.650;2023-12-28T06:18:10;16.4;50.0
78467;SHT31;67759;51.972;5.650;2023-12-28T06:20:39;16.4;49.9
78467;SHT31;67759;51.972;5.650;2023-12-28T06:23:08;16.4;49.9
78467;SHT31;67759;51.972;5.650;2023-12-28T06:25:38;16.4;49.8
78467;SHT31;67759;51.972;5.650;2023-12-28T06:28:07;16.4;49.8
78467;SHT31;67759;51.972;5.650;2023-12-28T06:30:35;16.4;49.8
78467;SHT31;67759;51.972;5.650;2023-12-28T06:33:06;16.3;49.9
78467;SHT31;67759;51.972;5.650;2023-12-28T06:35:35;16.3;49.9
78467;SHT31;67759;51.972;5.650;2023-12-28T06:38:04;16.2;50.1
78467;SHT31;67759;51.972;5.650;2023-12-28T06:40:32;16.2;50.3
78467;SHT31;67759;51.972;5.650;2023-12-28T06:43:02;16.1;50.2
78467;SHT31;67759;51.972;5.650;2023-12-28T06:45:31;16.1;50.2
78467;SHT31;67759;51.972;5.650;2023-12-28T06:48:00;16.1;50.3
78467;SHT31;67759;51.972;5.650;2023-12-28T06:50:28;16.0;50.6
78467;SHT31;67759;51.972;5.650;2023-12-28T06:52:59;16.0;50.7
78467;SHT31;67759;51.972;5.650;2023-12-28T06:55:28;16.0;50.6
78467;SHT31;67759;51.972;5.650;2023-12-28T06:57:57;16.0;50.7
78467;SHT31;67759;51.972;5.650;2023-12-28T07:00:25;16.0;50.8
78467;SHT31;67759;51.972;5.650;2023-12-28T07:02:54;15.9;51.0
78467;SHT31;67759;51.972;5.650;2023-12-28T07:05:23;15.9;51.1
78467;SHT31;67759;51.972;5.650;2023-12-28T07:07:53;15.9;51.0
78467;SHT31;67759;51.972;5.650;2023-12-28T07:10:22;15.9;50.7
78467;SHT31;67759;51.972;5.650;2023-12-28T07:12:50;15.9;50.6
78467;SHT31;67759;51.972;5.650;2023-12-28T07:15:19;15.9;50.7
78467;SHT31;67759;51.972;5.650;2023-12-28T07:17:48;15.8;50.8
78467;SHT31;67759;51.972;5.650;2023-12-28T07:20:17;15.8;51.2
78467;SHT31;67759;51.972;5.650;2023-12-28T07:22:45;15.8;51.4
78467;SHT31;67759;51.972;5.650;2023-12-28T07:25:14;15.9;51.2
78467;SHT31;67759;51.972;5.650;2023-12-28T07:27:43;15.9;50.8
78467;SHT31;67759;51.972;5.650;2023-12-28T07:30:12;15.9;50.8
78467;SHT31;67759;51.972;5.650;2023-12-28T07:32:43;15.9;50.7
78467;SHT31;67759;51.972;5.650;2023-12-28T07:35:12;15.8;50.8
78467;SHT31;67759;51.972;5.650;2023-12-28T07:37:41;15.8;50.9
78467;SHT31;67759;51.972;5.650;2023-12-28T07:40:12;15.7;51.0
78467;SHT31;67759;51.972;5.650;2023-12-28T07:42:42;15.7;51.2
78467;SHT31;67759;51.972;5.650;2023-12-28T07:45:11;15.6;51.4
78467;SHT31;67759;51.972;5.650;2023-12-28T07:47:40;15.6;51.6
78467;SHT31;67759;51.972;5.650;2023-12-28T07:50:11;15.5;51.7
78467;SHT31;67759;51.972;5.650;2023-12-28T07:52:44;15.5;52.0
78467;SHT31;67759;51.972;5.650;2023-12-28T07:55:13;15.5;52.1
78467;SHT31;67759;51.972;5.650;2023-12-28T07:57:42;15.5;52.3
78467;SHT31;67759;51.972;5.650;2023-12-28T08:00:11;15.5;52.0
78467;SHT31;67759;51.972;5.650;2023-12-28T08:02:40;15.5;52.1
78467;SHT31;67759;51.972;5.650;2023-12-28T08:05:10;15.5;52.4
78467;SHT31;67759;51.972;5.650;2023-12-28T08:07:38;15.6;51.9
78467;SHT31;67759;51.972;5.650;2023-12-28T08:10:07;15.7;51.7
78467;SHT31;67759;51.972;5.650;2023-12-28T08:12:36;15.7;51.5
78467;SHT31;67759;51.972;5.650;2023-12-28T08:15:06;15.7;51.6
78467;SHT31;67759;51.972;5.650;2023-12-28T08:17:34;15.7;51.5
78467;SHT31;67759;51.972;5.650;2023-12-28T08:20:05;15.8;51.5
78467;SHT31;67759;51.972;5.650;2023-12-28T08:22:34;15.8;51.4
78467;SHT31;67759;51.972;5.650;2023-12-28T08:25:04;15.8;51.4
78467;SHT31;67759;51.972;5.650;2023-12-28T08:27:33;15.8;51.2
78467;SHT31;67759;51.972;5.650;2023-12-28T08:30:02;15.8;51.2
78467;SHT31;67759;51.972;5.650;2023-12-28T08:32:31;15.8;51.3
78467;SHT31;67759;51.972;5.650;2023-12-28T08:35:00;15.9;51.2
78467;SHT31;67759;51.972;5.650;2023-12-28T08:37:29;15.9;51.2
78467;SHT31;67759;51.972;5.650;2023-12-28T08:39:57;15.9;51.3
78467;SHT31;67759;51.972;5.650;2023-12-28T08:42:26;15.9;51.2
78467;SHT31;67759;51.972;5.650;2023-12-28T08:44:54;15.9;51.3
78467;SHT31;67759;51.972;5.650;2023-12-28T08:47:23;15.9;51.3
78467;SHT31;67759;51.972;5.650;2023-12-28T08:49:52;15.9;51.2
78467;SHT31;67759;51.972;5.650;2023-12-28T08:52:21;16.0;51.0
78467;SHT31;67759;51.972;5.650;2023-12-28T08:54:50;16.0;51.0
78467;SHT31;67759;51.972;5.650;2023-12-28T08:57:19;16.0;51.0
78467;SHT31;67759;51.972;5.650;2023-12-28T08:59:47;16.0;51.1
78467;SHT31;67759;51.972;5.650;2023-12-28T09:02:16;16.0;50.7
78467;SHT31;67759;51.972;5.650;2023-12-28T09:04:46;16.0;50.8
78467;SHT31;67759;51.972;5.650;2023-12-28T09:07:15;16.0;50.7
78467;SHT31;67759;51.972;5.650;2023-12-28T09:09:46;16.0;51.0
78467;SHT31;67759;51.972;5.650;2023-12-28T09:12:16;16.0;50.8
78467;SHT31;67759;51.972;5.650;2023-12-28T09:14:45;16.0;50.4
78467;SHT31;67759;51.972;5.650;2023-12-28T09:17:13;16.0;50.6
78467;SHT31;67759;51.972;5.650;2023-12-28T09:19:42;16.0;50.5
78467;SHT31;67759;51.972;5.650;2023-12-28T09:22:11;16.0;50.7
78467;SHT31;67759;51.972;5.650;2023-12-28T09:24:39;16.0;50.5
78467;SHT31;67759;51.972;5.650;2023-12-28T09:27:08;16.0;50.4
78467;SHT31;67759;51.972;5.650;2023-12-28T09:29:37;16.0;50.5
78467;SHT31;67759;51.972;5.650;2023-12-28T09:32:06;16.0;51.0
78467;SHT31;67759;51.972;5.650;2023-12-28T09:34:37;16.0;50.5
78467;SHT31;67759;51.972;5.650;2023-12-28T09:37:06;16.0;50.7
78467;SHT31;67759;51.972;5.650;2023-12-28T09:39:37;16.0;50.7
78467;SHT31;67759;51.972;5.650;2023-12-28T09:42:16;16.1;50.7
78467;SHT31;67759;51.972;5.650;2023-12-28T09:44:46;16.1;50.6
78467;SHT31;67759;51.972;5.650;2023-12-28T09:47:15;16.1;50.5
78467;SHT31;67759;51.972;5.650;2023-12-28T09:49:45;16.1;50.9
78467;SHT31;67759;51.972;5.650;2023-12-28T09:52:15;16.2;50.4
78467;SHT31;67759;51.972;5.650;2023-12-28T09:54:46;16.2;50.5
78467;SHT31;67759;51.972;5.650;2023-12-28T09:57:17;16.2;50.3
78467;SHT31;67759;51.972;5.650;2023-12-28T09:59:46;16.3;50.2
78467;SHT31;67759;51.972;5.650;2023-12-28T10:02:15;16.3;50.3
78467;SHT31;67759;51.972;5.650;2023-12-28T10:04:45;16.3;50.0
78467;SHT31;67759;51.972;5.650;2023-12-28T10:07:13;16.3;50.1
78467;SHT31;67759;51.972;5.650;2023-12-28T10:09:42;16.3;49.9
78467;SHT31;67759;51.972;5.650;2023-12-28T10:12:10;16.3;50.0
78467;SHT31;67759;51.972;5.650;2023-12-28T10:14:39;16.3;50.1
78467;SHT31;67759;51.972;5.650;2023-12-28T10:17:08;16.3;50.0
78467;SHT31;67759;51.972;5.650;2023-12-28T10:19:38;16.3;49.9
78467;SHT31;67759;51.972;5.650;2023-12-28T10:22:07;16.3;50.0
78467;SHT31;67759;51.972;5.650;2023-12-28T10:24:43;16.3;49.8
78467;SHT31;67759;51.972;5.650;2023-12-28T10:27:13;16.3;49.8
78467;SHT31;67759;51.972;5.650;2023-12-28T10:29:42;16.3;49.8
78467;SHT31;67759;51.972;5.650;2023-12-28T10:32:11;16.4;49.7
78467;SHT31;67759;51.972;5.650;2023-12-28T10:34:39;16.4;49.7
78467;SHT31;67759;51.972;5.650;2023-12-28T10:37:10;16.4;49.8
78467;SHT31;67759;51.972;5.650;2023-12-28T10:39:46;16.5;49.6
78467;SHT31;67759;51.972;5.650;2023-12-28T10:42:26;16.5;49.7
78467;SHT31;67759;51.972;5.650;2023-12-28T10:45:02;16.5;49.4
78467;SHT31;67759;51.972;5.650;2023-12-28T10:47:33;16.5;49.4
78467;SHT31;67759;51.972;5.650;2023-12-28T10:50:06;16.5;49.6
78467;SHT31;67759;51.972;5.650;2023-12-28T10:52:36;16.5;49.5
78467;SHT31;67759;51.972;5.650;2023-12-28T10:55:20;16.5;49.4
78467;SHT31;67759;51.972;5.650;2023-12-28T10:58:02;16.5;49.4
78467;SHT31;67759;51.972;5.650;2023-12-28T11:00:36;16.5;49.4
78467;SHT31;67759;51.972;5.650;2023-12-28T11:03:13;16.6;49.0
78467;SHT31;67759;51.972;5.650;2023-12-28T11:05:49;16.6;49.3
78467;SHT31;67759;51.972;5.650;2023-12-28T11:08:19;16.5;49.6
78467;SHT31;67759;51.972;5.650;2023-12-28T11:10:51;16.5;49.0
78467;SHT31;67759;51.972;5.650;2023-12-28T11:13:20;16.5;49.3
78467;SHT31;67759;51.972;5.650;2023-12-28T11:15:51;16.5;49.3
78467;SHT31;67759;51.972;5.650;2023-12-28T11:18:20;16.5;49.2
78467;SHT31;67759;51.972;5.650;2023-12-28T11:20:51;16.5;49.1
78467;SHT31;67759;51.972;5.650;2023-12-28T11:23:20;16.5;49.3
78467;SHT31;67759;51.972;5.650;2023-12-28T11:25:49;16.5;49.5
78467;SHT31;67759;51.972;5.650;2023-12-28T11:28:18;16.5;49.4
78467;SHT31;67759;51.972;5.650;2023-12-28T11:30:47;16.5;49.7
78467;SHT31;67759;51.972;5.650;2023-12-28T11:33:17;16.5;49.4
78467;SHT31;67759;51.972;5.650;2023-12-28T11:35:47;16.5;49.3
78467;SHT31;67759;51.972;5.650;2023-12-28T11:38:17;16.5;49.0
78467;SHT31;67759;51.972;5.650;2023-12-28T11:40:46;16.5;49.2
78467;SHT31;67759;51.972;5.650;2023-12-28T11:43:18;16.5;49.4
78467;SHT31;67759;51.972;5.650;2023-12-28T11:45:54;16.6;49.4
78467;SHT31;67759;51.972;5.650;2023-12-28T11:48:24;16.6;49.2
78467;SHT31;67759;51.972;5.650;2023-12-28T11:50:58;16.6;49.8
78467;SHT31;67759;51.972;5.650;2023-12-28T11:53:27;16.7;49.0
78467;SHT31;67759;51.972;5.650;2023-12-28T11:56:01;16.7;49.4
78467;SHT31;67759;51.972;5.650;2023-12-28T11:58:32;16.7;49.2
78467;SHT31;67759;51.972;5.650;2023-12-28T12:01:02;16.7;49.3
78467;SHT31;67759;51.972;5.650;2023-12-28T12:03:31;16.7;48.9
78467;SHT31;67759;51.972;5.650;2023-12-28T12:06:00;16.8;48.9
78467;SHT31;67759;51.972;5.650;2023-12-28T12:08:29;16.8;48.9
78467;SHT31;67759;51.972;5.650;2023-12-28T12:11:02;16.8;49.1
78467;SHT31;67759;51.972;5.650;2023-12-28T12:13:33;16.8;48.8
78467;SHT31;67759;51.972;5.650;2023-12-28T12:16:03;16.8;48.9
78467;SHT31;67759;51.972;5.650;2023-12-28T12:18:33;16.8;48.9
78467;SHT31;67759;51.972;5.650;2023-12-28T12:21:03;16.8;49.0
78467;SHT31;67759;51.972;5.650;2023-12-28T12:23:32;16.8;48.9
78467;SHT31;67759;51.972;5.650;2023-12-28T12:26:04;16.8;48.4
78467;SHT31;67759;51.972;5.650;2023-12-28T12:28:33;16.8;49.1
78467;SHT31;67759;51.972;5.650;2023-12-28T12:31:04;16.8;48.7
78467;SHT31;67759;51.972;5.650;2023-12-28T12:33:34;16.8;48.8
78467;SHT31;67759;51.972;5.650;2023-12-28T12:36:02;16.9;48.4
78467;SHT31;67759;51.972;5.650;2023-12-28T12:38:32;16.9;48.4
78467;SHT31;67759;51.972;5.650;2023-12-28T12:41:03;16.9;48.5
78467;SHT31;67759;51.972;5.650;2023-12-28T12:43:31;16.9;48.4
78467;SHT31;67759;51.972;5.650;2023-12-28T12:46:00;16.9;48.2
78467;SHT31;67759;51.972;5.650;2023-12-28T12:48:30;16.9;48.3
78467;SHT31;67759;51.972;5.650;2023-12-28T12:51:02;16.9;48.2
78467;SHT31;67759;51.972;5.650;2023-12-28T12:53:35;16.9;48.1
78467;SHT31;67759;51.972;5.650;2023-12-28T12:56:05;16.9;48.4
78467;SHT31;67759;51.972;5.650;2023-12-28T12:58:34;16.9;48.6
78467;SHT31;67759;51.972;5.650;2023-12-28T13:01:03;16.9;48.2
78467;SHT31;67759;51.972;5.650;2023-12-28T13:03:31;17.0;48.0
78467;SHT31;67759;51.972;5.650;2023-12-28T13:06:00;17.0;48.0
78467;SHT31;67759;51.972;5.650;2023-12-28T13:08:30;17.0;48.0
78467;SHT31;67759;51.972;5.650;2023-12-28T13:11:00;17.0;47.6
78467;SHT31;67759;51.972;5.650;2023-12-28T13:13:29;17.0;47.6
78467;SHT31;67759;51.972;5.650;2023-12-28T13:15:57;17.0;48.0
78467;SHT31;67759;51.972;5.650;2023-12-28T13:18:26;17.0;47.8
78467;SHT31;67759;51.972;5.650;2023-12-28T13:20:55;16.9;48.2
78467;SHT31;67759;51.972;5.650;2023-12-28T13:23:24;16.9;47.8
78467;SHT31;67759;51.972;5.650;2023-12-28T13:25:55;16.9;47.9
78467;SHT31;67759;51.972;5.650;2023-12-28T13:28:25;16.9;47.7
78467;SHT31;67759;51.972;5.650;2023-12-28T13:30:53;16.9;47.8
78467;SHT31;67759;51.972;5.650;2023-12-28T13:33:23;16.8;48.3
78467;SHT31;67759;51.972;5.650;2023-12-28T13:35:52;16.8;48.3
78467;SHT31;67759;51.972;5.650;2023-12-28T13:38:21;16.8;48.3
78467;SHT31;67759;51.972;5.650;2023-12-28T13:40:49;16.8;48.0
78467;SHT31;67759;51.972;5.650;2023-12-28T13:43:18;16.8;48.3
78467;SHT31;67759;51.972;5.650;2023-12-28T13:45:47;16.7;48.4
78467;SHT31;67759;51.972;5.650;2023-12-28T13:48:15;16.7;48.3
78467;SHT31;67759;51.972;5.650;2023-12-28T13:50:44;16.7;48.4
78467;SHT31;67759;51.972;5.650;2023-12-28T13:53:13;16.7;48.3
78467;SHT31;67759;51.972;5.650;2023-12-28T13:55:42;16.7;48.8
78467;SHT31;67759;51.972;5.650;2023-12-28T13:58:10;16.7;48.2
78467;SHT31;67759;51.972;5.650;2023-12-28T14:00:39;16.7;48.3
78467;SHT31;67759;51.972;5.650;2023-12-28T14:03:08;16.7;48.4
78467;SHT31;67759;51.972;5.650;2023-12-28T14:05:36;16.6;48.5
78467;SHT31;67759;51.972;5.650;2023-12-28T14:08:08;16.6;48.4
78467;SHT31;67759;51.972;5.650;2023-12-28T14:10:37;16.6;48.6
78467;SHT31;67759;51.972;5.650;2023-12-28T14:13:06;16.6;48.6
78467;SHT31;67759;51.972;5.650;2023-12-28T14:15:35;16.6;48.7
78467;SHT31;67759;51.972;5.650;2023-12-28T14:18:05;16.6;48.7
78467;SHT31;67759;51.972;5.650;2023-12-28T14:20:35;16.6;49.2
78467;SHT31;67759;51.972;5.650;2023-12-28T14:23:04;16.6;49.0
78467;SHT31;67759;51.972;5.650;2023-12-28T14:25:33;16.5;49.2
78467;SHT31;67759;51.972;5.650;2023-12-28T14:28:03;16.5;49.3
78467;SHT31;67759;51.972;5.650;2023-12-28T14:30:33;16.5;49.2
78467;SHT31;67759;51.972;5.650;2023-12-28T14:33:02;16.5;49.2
78467;SHT31;67759;51.972;5.650;2023-12-28T14:35:32;16.5;49.3
78467;SHT31;67759;51.972;5.650;2023-12-28T14:38:00;16.5;49.3
78467;SHT31;67759;51.972;5.650;2023-12-28T14:40:29;16.5;49.2
78467;SHT31;67759;51.972;5.650;2023-12-28T14:42:57;16.5;49.1
78467;SHT31;67759;51.972;5.650;2023-12-28T14:45:26;16.5;49.5
78467;SHT31;67759;51.972;5.650;2023-12-28T14:47:55;16.5;49.6
78467;SHT31;67759;51.972;5.650;2023-12-28T14:50:23;16.5;49.8
78467;SHT31;67759;51.972;5.650;2023-12-28T14:52:54;16.5;49.6
78467;SHT31;67759;51.972;5.650;2023-12-28T14:55:22;16.6;49.4
78467;SHT31;67759;51.972;5.650;2023-12-28T14:57:51;16.6;49.3
78467;SHT31;67759;51.972;5.650;2023-12-28T15:00:20;16.6;49.4
78467;SHT31;67759;51.972;5.650;2023-12-28T15:02:49;16.6;49.7
78467;SHT31;67759;51.972;5.650;2023-12-28T15:05:17;16.5;49.6
78467;SHT31;67759;51.972;5.650;2023-12-28T15:07:46;16.5;49.4
78467;SHT31;67759;51.972;5.650;2023-12-28T15:10:16;16.5;49.6
78467;SHT31;67759;51.972;5.650;2023-12-28T15:12:45;16.5;49.4
78467;SHT31;67759;51.972;5.650;2023-12-28T15:15:17;16.5;49.4
78467;SHT31;67759;51.972;5.650;2023-12-28T15:17:46;16.5;49.4
78467;SHT31;67759;51.972;5.650;2023-12-28T15:20:15;16.5;49.4
78467;SHT31;67759;51.972;5.650;2023-12-28T15:22:44;16.5;49.3
78467;SHT31;67759;51.972;5.650;2023-12-28T15:25:13;16.4;49.6
78467;SHT31;67759;51.972;5.650;2023-12-28T15:27:42;16.4;49.5
78467;SHT31;67759;51.972;5.650;2023-12-28T15:30:10;16.4;49.5
78467;SHT31;67759;51.972;5.650;2023-12-28T15:32:40;16.4;49.5
78467;SHT31;67759;51.972;5.650;2023-12-28T15:35:13;16.4;49.7
78467;SHT31;67759;51.972;5.650;2023-12-28T15:37:43;16.4;49.4
78467;SHT31;67759;51.972;5.650;2023-12-28T15:40:12;16.4;49.4
78467;SHT31;67759;51.972;5.650;2023-12-28T15:42:42;16.4;49.3
78467;SHT31;67759;51.972;5.650;2023-12-28T15:45:11;16.3;49.5
78467;SHT31;67759;51.972;5.650;2023-12-28T15:47:39;16.3;49.6
78467;SHT31;67759;51.972;5.650;2023-12-28T15:50:08;16.3;49.5
78467;SHT31;67759;51.972;5.650;2023-12-28T15:52:37;16.3;49.4
78467;SHT31;67759;51.972;5.650;2023-12-28T15:55:06;16.3;49.5
78467;SHT31;67759;51.972;5.650;2023-12-28T15:57:34;16.3;49.5
78467;SHT31;67759;51.972;5.650;2023-12-28T16:00:03;16.3;49.2
78467;SHT31;67759;51.972;5.650;2023-12-28T16:02:32;16.3;49.1
78467;SHT31;67759;51.972;5.650;2023-12-28T16:05:01;16.3;49.3
78467;SHT31;67759;51.972;5.650;2023-12-28T16:07:29;16.3;49.3
78467;SHT31;67759;51.972;5.650;2023-12-28T16:09:58;16.3;49.3
78467;SHT31;67759;51.972;5.650;2023-12-28T16:12:27;16.3;49.2
78467;SHT31;67759;51.972;5.650;2023-12-28T16:14:58;16.3;49.5
78467;SHT31;67759;51.972;5.650;2023-12-28T16:17:27;16.2;49.4